CheckWX is a tool to help pilots better visualize weather data.  It is not intended as a substitute for an official pre-flight weather briefing.

12:51:50 UTC

SLTR TAF
Teniente Av. Jorge Henrich Arauz Airport
Trinidad, Bolivia
TAF SLTR 171035Z 1712/1812 34006KT 9999 SCT015 SCT080 TX31/1720Z TN20 /1811Z PROB40 TEMPO 1718/1722 8000 VCSH FEW020 FEW023CB

Jun-17@
12:00 UTC

Jun-17 @ 12:00 UTC

Jun-18@
12:00 UTC

Jun-18 @ 12:00 UTC

TAF SLTR 171035Z 1712/1812 34006KT 9999 SCT015 SCT080 TX31/1720Z TN20 /1811Z
Wind
  • 340° at 6 KTS
Cloud Levels
  • Scattered at 1,500' AGL
  • Scattered at 8,000' AGL

Jun-17@
18:00 UTC

Jun-17 @ 18:00 UTC

Jun-17@
22:00 UTC

Jun-17 @ 22:00 UTC

PROB40 TEMPO 1718/1722 8000 VCSH FEW020 FEW023CB

Temporary - 40% Likelihood

Temporary - 40% Likelihood during this time.

Cloud Levels
  • Few at 2,000' AGL
  • Few at 2,300' AGL